sensor_id;sensor_type;location;lat;lon;timestamp;temperature;humidity
56240;DHT22;42154;51.992;5.896;2023-02-11T00:01:12;7.40;99.90
56240;DHT22;42154;51.992;5.896;2023-02-11T00:03:42;7.40;99.90
56240;DHT22;42154;51.992;5.896;2023-02-11T00:06:07;7.40;99.90
56240;DHT22;42154;51.992;5.896;2023-02-11T00:08:37;7.30;99.90
56240;DHT22;42154;51.992;5.896;2023-02-11T00:11:03;7.40;99.90
56240;DHT22;42154;51.992;5.896;2023-02-11T00:13:29;7.40;99.90
56240;DHT22;42154;51.992;5.896;2023-02-11T00:15:55;7.40;99.90
56240;DHT22;42154;51.992;5.896;2023-02-11T00:18:22;7.40;99.90
56240;DHT22;42154;51.992;5.896;2023-02-11T00:20:47;7.40;99.90
56240;DHT22;42154;51.992;5.896;2023-02-11T00:23:13;7.40;99.90
56240;DHT22;42154;51.992;5.896;2023-02-11T00:25:44;7.40;99.90
56240;DHT22;42154;51.992;5.896;2023-02-11T00:28:11;7.30;99.90
56240;DHT22;42154;51.992;5.896;2023-02-11T00:30:39;7.40;99.90
56240;DHT22;42154;51.992;5.896;2023-02-11T00:33:05;7.40;99.90
56240;DHT22;42154;51.992;5.896;2023-02-11T00:35:31;7.40;99.90
56240;DHT22;42154;51.992;5.896;2023-02-11T00:37:57;7.40;99.90
56240;DHT22;42154;51.992;5.896;2023-02-11T00:40:23;7.40;99.90
56240;DHT22;42154;51.992;5.896;2023-02-11T00:42:48;7.30;99.90
56240;DHT22;42154;51.992;5.896;2023-02-11T00:45:15;7.30;99.90
56240;DHT22;42154;51.992;5.896;2023-02-11T00:47:41;7.30;99.90
56240;DHT22;42154;51.992;5.896;2023-02-11T00:50:07;7.40;99.90
56240;DHT22;42154;51.992;5.896;2023-02-11T00:52:33;7.40;99.90
56240;DHT22;42154;51.992;5.896;2023-02-11T00:54:58;7.40;99.90
56240;DHT22;42154;51.992;5.896;2023-02-11T00:57:24;7.40;99.90
56240;DHT22;42154;51.992;5.896;2023-02-11T00:59:50;7.40;99.90
56240;DHT22;42154;51.992;5.896;2023-02-11T01:02:16;7.40;99.90
56240;DHT22;42154;51.992;5.896;2023-02-11T01:04:42;7.40;99.90
56240;DHT22;42154;51.992;5.896;2023-02-11T01:07:08;7.40;99.90
56240;DHT22;42154;51.992;5.896;2023-02-11T01:09:37;7.40;99.90
56240;DHT22;42154;51.992;5.896;2023-02-11T01:12:04;7.40;99.90
56240;DHT22;42154;51.992;5.896;2023-02-11T01:14:31;7.40;99.90
56240;DHT22;42154;51.992;5.896;2023-02-11T01:16:57;7.40;99.90
56240;DHT22;42154;51.992;5.896;2023-02-11T01:19:22;7.40;99.90
56240;DHT22;42154;51.992;5.896;2023-02-11T01:21:48;7.40;99.90
56240;DHT22;42154;51.992;5.896;2023-02-11T01:24:14;7.40;99.90
56240;DHT22;42154;51.992;5.896;2023-02-11T01:26:43;7.40;99.90
56240;DHT22;42154;51.992;5.896;2023-02-11T01:29:08;7.40;99.90
56240;DHT22;42154;51.992;5.896;2023-02-11T01:31:34;7.30;99.90
56240;DHT22;42154;51.992;5.896;2023-02-11T01:34:00;7.30;99.90
56240;DHT22;42154;51.992;5.896;2023-02-11T01:36:25;7.30;99.90
56240;DHT22;42154;51.992;5.896;2023-02-11T01:38:51;7.30;99.90
56240;DHT22;42154;51.992;5.896;2023-02-11T01:41:19;7.20;99.90
56240;DHT22;42154;51.992;5.896;2023-02-11T01:43:48;7.20;99.90
56240;DHT22;42154;51.992;5.896;2023-02-11T01:46:34;7.30;99.90
56240;DHT22;42154;51.992;5.896;2023-02-11T01:49:08;7.30;99.90
56240;DHT22;42154;51.992;5.896;2023-02-11T01:51:42;7.30;99.90
56240;DHT22;42154;51.992;5.896;2023-02-11T01:54:10;7.30;99.90
56240;DHT22;42154;51.992;5.896;2023-02-11T01:56:59;7.30;99.90
56240;DHT22;42154;51.992;5.896;2023-02-11T02:00:12;7.30;99.90
56240;DHT22;42154;51.992;5.896;2023-02-11T02:05:38;7.30;99.90
56240;DHT22;42154;51.992;5.896;2023-02-11T02:08:24;7.30;99.90
56240;DHT22;42154;51.992;5.896;2023-02-11T02:10:54;7.30;99.90
56240;DHT22;42154;51.992;5.896;2023-02-11T02:13:25;7.30;99.90
56240;DHT22;42154;51.992;5.896;2023-02-11T02:15:59;7.30;99.90
56240;DHT22;42154;51.992;5.896;2023-02-11T02:18:55;7.30;99.90
56240;DHT22;42154;51.992;5.896;2023-02-11T02:35:39;7.30;99.90
56240;DHT22;42154;51.992;5.896;2023-02-11T02:41:13;7.30;99.90
56240;DHT22;42154;51.992;5.896;2023-02-11T02:43:43;7.20;99.90
56240;DHT22;42154;51.992;5.896;2023-02-11T02:48:36;7.20;99.90
56240;DHT22;42154;51.992;5.896;2023-02-11T03:02:21;7.20;99.90
56240;DHT22;42154;51.992;5.896;2023-02-11T03:04:53;7.20;99.90
56240;DHT22;42154;51.992;5.896;2023-02-11T03:10:03;7.20;99.90
56240;DHT22;42154;51.992;5.896;2023-02-11T03:12:32;7.20;99.90
56240;DHT22;42154;51.992;5.896;2023-02-11T03:15:00;7.20;99.90
56240;DHT22;42154;51.992;5.896;2023-02-11T03:17:27;7.20;99.90
56240;DHT22;42154;51.992;5.896;2023-02-11T03:19:54;7.20;99.90
56240;DHT22;42154;51.992;5.896;2023-02-11T03:22:32;7.20;99.90
56240;DHT22;42154;51.992;5.896;2023-02-11T03:25:00;7.20;99.90
56240;DHT22;42154;51.992;5.896;2023-02-11T03:27:32;7.20;99.90
56240;DHT22;42154;51.992;5.896;2023-02-11T03:32:40;7.20;99.90
56240;DHT22;42154;51.992;5.896;2023-02-11T03:35:19;7.20;99.90
56240;DHT22;42154;51.992;5.896;2023-02-11T03:38:04;7.20;99.90
56240;DHT22;42154;51.992;5.896;2023-02-11T03:40:34;7.20;99.90
56240;DHT22;42154;51.992;5.896;2023-02-11T03:45:37;7.20;99.90
56240;DHT22;42154;51.992;5.896;2023-02-11T03:48:08;7.20;99.90
56240;DHT22;42154;51.992;5.896;2023-02-11T03:50:36;7.20;99.90
56240;DHT22;42154;51.992;5.896;2023-02-11T03:53:04;7.20;99.90
56240;DHT22;42154;51.992;5.896;2023-02-11T03:55:33;7.20;99.90
56240;DHT22;42154;51.992;5.896;2023-02-11T03:58:00;7.20;99.90
56240;DHT22;42154;51.992;5.896;2023-02-11T04:00:36;7.20;99.90
56240;DHT22;42154;51.992;5.896;2023-02-11T04:03:04;7.20;99.90
56240;DHT22;42154;51.992;5.896;2023-02-11T04:05:30;7.20;99.90
56240;DHT22;42154;51.992;5.896;2023-02-11T04:07:56;7.20;99.90
56240;DHT22;42154;51.992;5.896;2023-02-11T04:10:22;7.30;99.90
56240;DHT22;42154;51.992;5.896;2023-02-11T04:12:48;7.30;99.90
56240;DHT22;42154;51.992;5.896;2023-02-11T04:15:14;7.30;99.90
56240;DHT22;42154;51.992;5.896;2023-02-11T04:17:40;7.30;99.90
56240;DHT22;42154;51.992;5.896;2023-02-11T04:20:06;7.20;99.90
56240;DHT22;42154;51.992;5.896;2023-02-11T04:22:32;7.30;99.90
56240;DHT22;42154;51.992;5.896;2023-02-11T04:24:58;7.20;99.90
56240;DHT22;42154;51.992;5.896;2023-02-11T04:27:24;7.30;99.90
56240;DHT22;42154;51.992;5.896;2023-02-11T04:29:50;7.30;99.90
56240;DHT22;42154;51.992;5.896;2023-02-11T04:32:16;7.30;99.90
56240;DHT22;42154;51.992;5.896;2023-02-11T04:34:41;7.30;99.90
56240;DHT22;42154;51.992;5.896;2023-02-11T04:37:07;7.30;99.90
56240;DHT22;42154;51.992;5.896;2023-02-11T04:39:33;7.40;99.90
56240;DHT22;42154;51.992;5.896;2023-02-11T04:41:59;7.30;99.90
56240;DHT22;42154;51.992;5.896;2023-02-11T04:44:25;7.30;99.90
56240;DHT22;42154;51.992;5.896;2023-02-11T04:46:51;7.30;99.90
56240;DHT22;42154;51.992;5.896;2023-02-11T04:49:17;7.30;99.90
56240;DHT22;42154;51.992;5.896;2023-02-11T04:51:43;7.40;99.90
56240;DHT22;42154;51.992;5.896;2023-02-11T04:54:12;7.30;99.90
56240;DHT22;42154;51.992;5.896;2023-02-11T04:56:38;7.30;99.90
56240;DHT22;42154;51.992;5.896;2023-02-11T04:59:05;7.30;99.90
56240;DHT22;42154;51.992;5.896;2023-02-11T05:01:31;7.40;99.90
56240;DHT22;42154;51.992;5.896;2023-02-11T05:03:57;7.30;99.90
56240;DHT22;42154;51.992;5.896;2023-02-11T05:06:23;7.40;99.90
56240;DHT22;42154;51.992;5.896;2023-02-11T05:08:48;7.30;99.90
56240;DHT22;42154;51.992;5.896;2023-02-11T05:11:17;7.30;99.90
56240;DHT22;42154;51.992;5.896;2023-02-11T05:13:43;7.40;99.90
56240;DHT22;42154;51.992;5.896;2023-02-11T05:16:09;7.40;99.90
56240;DHT22;42154;51.992;5.896;2023-02-11T05:18:41;7.40;99.90
56240;DHT22;42154;51.992;5.896;2023-02-11T05:21:08;7.40;99.90
56240;DHT22;42154;51.992;5.896;2023-02-11T05:23:35;7.30;99.90
56240;DHT22;42154;51.992;5.896;2023-02-11T05:26:01;7.40;99.90
56240;DHT22;42154;51.992;5.896;2023-02-11T05:28:27;7.40;99.90
56240;DHT22;42154;51.992;5.896;2023-02-11T05:30:53;7.40;99.90
56240;DHT22;42154;51.992;5.896;2023-02-11T05:33:19;7.40;99.90
56240;DHT22;42154;51.992;5.896;2023-02-11T05:35:45;7.40;99.90
56240;DHT22;42154;51.992;5.896;2023-02-11T05:38:10;7.40;99.90
56240;DHT22;42154;51.992;5.896;2023-02-11T05:40:36;7.40;99.90
56240;DHT22;42154;51.992;5.896;2023-02-11T05:43:02;7.40;99.90
56240;DHT22;42154;51.992;5.896;2023-02-11T05:45:28;7.40;99.90
56240;DHT22;42154;51.992;5.896;2023-02-11T05:47:53;7.40;99.90
56240;DHT22;42154;51.992;5.896;2023-02-11T05:50:19;7.50;99.90
56240;DHT22;42154;51.992;5.896;2023-02-11T05:52:45;7.50;99.90
56240;DHT22;42154;51.992;5.896;2023-02-11T05:55:11;7.40;99.90
56240;DHT22;42154;51.992;5.896;2023-02-11T05:57:37;7.50;99.90
56240;DHT22;42154;51.992;5.896;2023-02-11T06:00:04;7.50;99.90
56240;DHT22;42154;51.992;5.896;2023-02-11T06:02:38;7.40;99.90
56240;DHT22;42154;51.992;5.896;2023-02-11T06:05:04;7.40;99.90
56240;DHT22;42154;51.992;5.896;2023-02-11T06:07:30;7.50;99.90
56240;DHT22;42154;51.992;5.896;2023-02-11T06:09:56;7.50;99.90
56240;DHT22;42154;51.992;5.896;2023-02-11T06:12:22;7.50;99.90
56240;DHT22;42154;51.992;5.896;2023-02-11T06:14:48;7.50;99.90
56240;DHT22;42154;51.992;5.896;2023-02-11T06:17:13;7.40;99.90
56240;DHT22;42154;51.992;5.896;2023-02-11T06:19:39;7.50;99.90
56240;DHT22;42154;51.992;5.896;2023-02-11T06:22:05;7.40;99.90
56240;DHT22;42154;51.992;5.896;2023-02-11T06:24:31;7.50;99.90
56240;DHT22;42154;51.992;5.896;2023-02-11T06:26:56;7.50;99.90
56240;DHT22;42154;51.992;5.896;2023-02-11T06:29:22;7.50;99.90
56240;DHT22;42154;51.992;5.896;2023-02-11T06:31:48;7.40;99.90
56240;DHT22;42154;51.992;5.896;2023-02-11T06:34:13;7.40;99.90
56240;DHT22;42154;51.992;5.896;2023-02-11T06:36:39;7.40;99.90
56240;DHT22;42154;51.992;5.896;2023-02-11T06:39:06;7.40;99.90
56240;DHT22;42154;51.992;5.896;2023-02-11T06:41:32;7.40;99.90
56240;DHT22;42154;51.992;5.896;2023-02-11T06:43:58;7.40;99.90
56240;DHT22;42154;51.992;5.896;2023-02-11T06:46:24;7.40;99.90
56240;DHT22;42154;51.992;5.896;2023-02-11T06:48:50;7.40;99.90
56240;DHT22;42154;51.992;5.896;2023-02-11T06:51:16;7.40;99.90
56240;DHT22;42154;51.992;5.896;2023-02-11T06:53:45;7.50;99.90
56240;DHT22;42154;51.992;5.896;2023-02-11T06:56:16;7.50;99.90
56240;DHT22;42154;51.992;5.896;2023-02-11T06:58:42;7.50;99.90
56240;DHT22;42154;51.992;5.896;2023-02-11T07:01:11;7.50;99.90
56240;DHT22;42154;51.992;5.896;2023-02-11T07:03:40;7.60;99.90
56240;DHT22;42154;51.992;5.896;2023-02-11T07:06:11;7.50;99.90
56240;DHT22;42154;51.992;5.896;2023-02-11T07:08:38;7.60;99.90
56240;DHT22;42154;51.992;5.896;2023-02-11T07:11:09;7.50;99.90
56240;DHT22;42154;51.992;5.896;2023-02-11T07:13:36;7.50;99.90
56240;DHT22;42154;51.992;5.896;2023-02-11T07:16:06;7.50;99.90
56240;DHT22;42154;51.992;5.896;2023-02-11T07:18:33;7.50;99.90
56240;DHT22;42154;51.992;5.896;2023-02-11T07:20:59;7.50;99.90
56240;DHT22;42154;51.992;5.896;2023-02-11T07:23:24;7.50;99.90
56240;DHT22;42154;51.992;5.896;2023-02-11T07:25:50;7.50;99.90
56240;DHT22;42154;51.992;5.896;2023-02-11T07:28:16;7.50;99.90
56240;DHT22;42154;51.992;5.896;2023-02-11T07:30:41;7.50;99.90
56240;DHT22;42154;51.992;5.896;2023-02-11T07:33:07;7.50;99.90
56240;DHT22;42154;51.992;5.896;2023-02-11T07:35:33;7.50;99.90
56240;DHT22;42154;51.992;5.896;2023-02-11T07:37:58;7.50;99.90
56240;DHT22;42154;51.992;5.896;2023-02-11T07:40:24;7.50;99.90
56240;DHT22;42154;51.992;5.896;2023-02-11T07:42:50;7.60;99.90
56240;DHT22;42154;51.992;5.896;2023-02-11T07:45:16;7.60;99.90
56240;DHT22;42154;51.992;5.896;2023-02-11T07:47:42;7.60;99.90
56240;DHT22;42154;51.992;5.896;2023-02-11T07:50:08;7.60;99.90
56240;DHT22;42154;51.992;5.896;2023-02-11T07:52:34;7.60;99.90
56240;DHT22;42154;51.992;5.896;2023-02-11T07:55:00;7.60;99.90
56240;DHT22;42154;51.992;5.896;2023-02-11T07:57:26;7.70;99.90
56240;DHT22;42154;51.992;5.896;2023-02-11T07:59:52;7.70;99.90
56240;DHT22;42154;51.992;5.896;2023-02-11T08:02:19;7.70;99.90
56240;DHT22;42154;51.992;5.896;2023-02-11T08:04:45;7.70;99.90
56240;DHT22;42154;51.992;5.896;2023-02-11T08:07:17;7.80;99.90
56240;DHT22;42154;51.992;5.896;2023-02-11T08:09:43;7.70;99.90
56240;DHT22;42154;51.992;5.896;2023-02-11T08:12:08;7.80;99.90
56240;DHT22;42154;51.992;5.896;2023-02-11T08:14:34;7.80;99.90
56240;DHT22;42154;51.992;5.896;2023-02-11T08:17:00;7.90;99.90
56240;DHT22;42154;51.992;5.896;2023-02-11T08:19:26;7.90;99.90
56240;DHT22;42154;51.992;5.896;2023-02-11T08:21:55;7.90;99.90
56240;DHT22;42154;51.992;5.896;2023-02-11T08:24:21;7.90;99.90
56240;DHT22;42154;51.992;5.896;2023-02-11T08:26:47;7.90;99.90
56240;DHT22;42154;51.992;5.896;2023-02-11T08:29:14;7.90;99.90
56240;DHT22;42154;51.992;5.896;2023-02-11T08:31:43;8.00;99.90
56240;DHT22;42154;51.992;5.896;2023-02-11T08:34:10;8.00;99.90
56240;DHT22;42154;51.992;5.896;2023-02-11T08:36:37;8.00;99.90
56240;DHT22;42154;51.992;5.896;2023-02-11T08:39:05;8.00;99.90
56240;DHT22;42154;51.992;5.896;2023-02-11T08:41:33;8.00;99.90
56240;DHT22;42154;51.992;5.896;2023-02-11T08:43:59;8.00;99.90
56240;DHT22;42154;51.992;5.896;2023-02-11T08:46:25;8.00;99.90
56240;DHT22;42154;51.992;5.896;2023-02-11T08:48:51;8.10;99.90
56240;DHT22;42154;51.992;5.896;2023-02-11T08:51:20;8.10;99.90
56240;DHT22;42154;51.992;5.896;2023-02-11T08:53:46;8.10;99.90
56240;DHT22;42154;51.992;5.896;2023-02-11T08:56:14;8.10;99.90
56240;DHT22;42154;51.992;5.896;2023-02-11T08:58:41;8.20;99.90
56240;DHT22;42154;51.992;5.896;2023-02-11T09:01:15;8.20;99.90
56240;DHT22;42154;51.992;5.896;2023-02-11T09:03:41;8.20;99.90
56240;DHT22;42154;51.992;5.896;2023-02-11T09:06:08;8.20;99.90
56240;DHT22;42154;51.992;5.896;2023-02-11T09:08:36;8.30;99.90
56240;DHT22;42154;51.992;5.896;2023-02-11T09:11:03;8.30;99.90
56240;DHT22;42154;51.992;5.896;2023-02-11T09:13:30;8.30;99.90
56240;DHT22;42154;51.992;5.896;2023-02-11T09:15:56;8.40;99.90
56240;DHT22;42154;51.992;5.896;2023-02-11T09:18:22;8.40;99.90
56240;DHT22;42154;51.992;5.896;2023-02-11T09:20:48;8.40;99.90
56240;DHT22;42154;51.992;5.896;2023-02-11T09:23:14;8.40;99.90
56240;DHT22;42154;51.992;5.896;2023-02-11T09:25:40;8.50;99.90
56240;DHT22;42154;51.992;5.896;2023-02-11T09:28:06;8.50;99.90
56240;DHT22;42154;51.992;5.896;2023-02-11T09:30:32;8.50;99.90
56240;DHT22;42154;51.992;5.896;2023-02-11T09:32:58;8.60;99.90
56240;DHT22;42154;51.992;5.896;2023-02-11T09:35:24;8.60;99.90
56240;DHT22;42154;51.992;5.896;2023-02-11T09:37:49;8.70;99.90
56240;DHT22;42154;51.992;5.896;2023-02-11T09:40:16;8.70;99.90
56240;DHT22;42154;51.992;5.896;2023-02-11T09:42:49;8.70;99.90
56240;DHT22;42154;51.992;5.896;2023-02-11T09:45:27;8.80;99.90
56240;DHT22;42154;51.992;5.896;2023-02-11T09:48:03;8.90;99.90
56240;DHT22;42154;51.992;5.896;2023-02-11T09:50:33;8.90;99.90
56240;DHT22;42154;51.992;5.896;2023-02-11T09:53:17;8.90;99.90
56240;DHT22;42154;51.992;5.896;2023-02-11T09:55:47;8.90;99.90
56240;DHT22;42154;51.992;5.896;2023-02-11T09:58:29;8.90;99.90
56240;DHT22;42154;51.992;5.896;2023-02-11T10:06:38;9.10;99.90
56240;DHT22;42154;51.992;5.896;2023-02-11T10:09:36;9.10;99.90
56240;DHT22;42154;51.992;5.896;2023-02-11T10:20:30;9.30;99.90
56240;DHT22;42154;51.992;5.896;2023-02-11T10:22:59;9.30;99.90
56240;DHT22;42154;51.992;5.896;2023-02-11T10:25:40;9.30;99.90
56240;DHT22;42154;51.992;5.896;2023-02-11T10:28:16;9.40;99.90
56240;DHT22;42154;51.992;5.896;2023-02-11T10:31:09;9.40;99.90
56240;DHT22;42154;51.992;5.896;2023-02-11T10:33:45;9.50;99.90
56240;DHT22;42154;51.992;5.896;2023-02-11T10:36:14;9.50;99.90
56240;DHT22;42154;51.992;5.896;2023-02-11T10:38:40;9.60;99.90
56240;DHT22;42154;51.992;5.896;2023-02-11T10:41:12;9.70;99.90
56240;DHT22;42154;51.992;5.896;2023-02-11T10:43:41;9.70;99.90
56240;DHT22;42154;51.992;5.896;2023-02-11T10:46:15;9.80;99.90
56240;DHT22;42154;51.992;5.896;2023-02-11T10:48:50;9.80;99.90
56240;DHT22;42154;51.992;5.896;2023-02-11T10:51:26;9.90;99.90
56240;DHT22;42154;51.992;5.896;2023-02-11T10:56:45;10.00;99.90
56240;DHT22;42154;51.992;5.896;2023-02-11T11:01:51;10.00;99.90
56240;DHT22;42154;51.992;5.896;2023-02-11T11:04:33;10.10;99.90
56240;DHT22;42154;51.992;5.896;2023-02-11T11:07:17;10.20;99.90
56240;DHT22;42154;51.992;5.896;2023-02-11T11:15:20;10.40;99.90
56240;DHT22;42154;51.992;5.896;2023-02-11T11:17:47;10.50;99.90
56240;DHT22;42154;51.992;5.896;2023-02-11T11:20:23;10.60;99.90
56240;DHT22;42154;51.992;5.896;2023-02-11T11:25:40;10.60;99.90
56240;DHT22;42154;51.992;5.896;2023-02-11T11:28:18;10.60;99.90
56240;DHT22;42154;51.992;5.896;2023-02-11T11:30:44;10.60;99.90
56240;DHT22;42154;51.992;5.896;2023-02-11T11:33:32;10.60;99.90
56240;DHT22;42154;51.992;5.896;2023-02-11T11:36:06;10.70;99.90
56240;DHT22;42154;51.992;5.896;2023-02-11T11:38:35;10.70;99.90
56240;DHT22;42154;51.992;5.896;2023-02-11T11:41:28;10.80;99.90
56240;DHT22;42154;51.992;5.896;2023-02-11T11:46:31;10.80;99.90
56240;DHT22;42154;51.992;5.896;2023-02-11T11:49:27;10.80;99.90
56240;DHT22;42154;51.992;5.896;2023-02-11T11:54:52;10.90;99.90
56240;DHT22;42154;51.992;5.896;2023-02-11T11:57:24;10.90;99.90
56240;DHT22;42154;51.992;5.896;2023-02-11T11:59:50;10.90;99.90
56240;DHT22;42154;51.992;5.896;2023-02-11T12:08:02;11.00;99.90
56240;DHT22;42154;51.992;5.896;2023-02-11T12:10:46;11.00;99.90
56240;DHT22;42154;51.992;5.896;2023-02-11T12:21:36;10.90;99.90
56240;DHT22;42154;51.992;5.896;2023-02-11T12:24:34;10.90;99.90
56240;DHT22;42154;51.992;5.896;2023-02-11T12:32:54;11.00;99.90
56240;DHT22;42154;51.992;5.896;2023-02-11T12:55:34;11.60;99.90
56240;DHT22;42154;51.992;5.896;2023-02-11T12:58:02;11.70;99.90
56240;DHT22;42154;51.992;5.896;2023-02-11T13:00:30;11.70;99.90
56240;DHT22;42154;51.992;5.896;2023-02-11T13:03:04;11.70;99.90
56240;DHT22;42154;51.992;5.896;2023-02-11T13:05:47;11.70;99.90
56240;DHT22;42154;51.992;5.896;2023-02-11T13:08:27;11.70;99.90
56240;DHT22;42154;51.992;5.896;2023-02-11T13:10:56;11.60;99.90
56240;DHT22;42154;51.992;5.896;2023-02-11T13:13:30;11.50;99.90
56240;DHT22;42154;51.992;5.896;2023-02-11T13:16:01;11.50;99.90
56240;DHT22;42154;51.992;5.896;2023-02-11T13:18:44;11.50;99.90
56240;DHT22;42154;51.992;5.896;2023-02-11T13:31:33;11.50;99.90
56240;DHT22;42154;51.992;5.896;2023-02-11T13:33:59;11.50;99.90
56240;DHT22;42154;51.992;5.896;2023-02-11T13:36:27;11.60;99.90
56240;DHT22;42154;51.992;5.896;2023-02-11T13:39:02;11.60;99.90
56240;DHT22;42154;51.992;5.896;2023-02-11T13:41:36;11.60;99.90
56240;DHT22;42154;51.992;5.896;2023-02-11T13:47:06;11.60;99.90
56240;DHT22;42154;51.992;5.896;2023-02-11T13:49:49;11.60;99.90
56240;DHT22;42154;51.992;5.896;2023-02-11T13:52:34;11.50;99.90
56240;DHT22;42154;51.992;5.896;2023-02-11T13:55:14;11.50;99.90
56240;DHT22;42154;51.992;5.896;2023-02-11T13:57:41;11.50;99.90
56240;DHT22;42154;51.992;5.896;2023-02-11T14:06:20;11.50;99.90
56240;DHT22;42154;51.992;5.896;2023-02-11T14:16:32;11.50;99.90
56240;DHT22;42154;51.992;5.896;2023-02-11T14:18:59;11.50;99.90
56240;DHT22;42154;51.992;5.896;2023-02-11T14:23:53;11.50;99.90
56240;DHT22;42154;51.992;5.896;2023-02-11T14:26:52;11.60;99.90
56240;DHT22;42154;51.992;5.896;2023-02-11T14:29:47;11.60;99.90
56240;DHT22;42154;51.992;5.896;2023-02-11T14:35:03;11.70;99.90
56240;DHT22;42154;51.992;5.896;2023-02-11T14:37:49;11.60;99.90
56240;DHT22;42154;51.992;5.896;2023-02-11T14:42:53;11.70;99.90
56240;DHT22;42154;51.992;5.896;2023-02-11T14:45:23;11.70;99.90
56240;DHT22;42154;51.992;5.896;2023-02-11T14:50:30;11.70;99.90
56240;DHT22;42154;51.992;5.896;2023-02-11T14:52:58;11.80;99.90
56240;DHT22;42154;51.992;5.896;2023-02-11T14:55:33;11.70;99.90
56240;DHT22;42154;51.992;5.896;2023-02-11T14:58:14;11.70;99.90
56240;DHT22;42154;51.992;5.896;2023-02-11T15:01:05;11.70;99.90
56240;DHT22;42154;51.992;5.896;2023-02-11T15:03:48;11.60;99.90
56240;DHT22;42154;51.992;5.896;2023-02-11T15:06:18;11.60;99.90
56240;DHT22;42154;51.992;5.896;2023-02-11T15:09:00;11.60;99.90
56240;DHT22;42154;51.992;5.896;2023-02-11T15:11:31;11.50;99.90
56240;DHT22;42154;51.992;5.896;2023-02-11T15:14:06;11.50;99.90
56240;DHT22;42154;51.992;5.896;2023-02-11T15:16:32;11.50;99.90
56240;DHT22;42154;51.992;5.896;2023-02-11T15:19:03;11.60;99.90
56240;DHT22;42154;51.992;5.896;2023-02-11T15:21:32;11.60;99.90
56240;DHT22;42154;51.992;5.896;2023-02-11T15:24:25;11.70;99.90
56240;DHT22;42154;51.992;5.896;2023-02-11T15:27:11;11.70;99.90
56240;DHT22;42154;51.992;5.896;2023-02-11T15:29:48;11.70;99.90
56240;DHT22;42154;51.992;5.896;2023-02-11T15:32:23;11.70;99.90
56240;DHT22;42154;51.992;5.896;2023-02-11T15:34:51;11.70;99.90
56240;DHT22;42154;51.992;5.896;2023-02-11T15:37:25;11.70;99.90
56240;DHT22;42154;51.992;5.896;2023-02-11T15:39:53;11.70;99.90
56240;DHT22;42154;51.992;5.896;2023-02-11T15:42:23;11.60;99.90
56240;DHT22;42154;51.992;5.896;2023-02-11T15:47:41;11.60;99.90
56240;DHT22;42154;51.992;5.896;2023-02-11T15:50:23;11.60;99.90
56240;DHT22;42154;51.992;5.896;2023-02-11T15:52:51;11.60;99.90
56240;DHT22;42154;51.992;5.896;2023-02-11T15:55:18;11.50;99.90
56240;DHT22;42154;51.992;5.896;2023-02-11T15:57:56;11.50;99.90
56240;DHT22;42154;51.992;5.896;2023-02-11T16:00:24;11.40;99.90
56240;DHT22;42154;51.992;5.896;2023-02-11T16:02:52;11.30;99.90
56240;DHT22;42154;51.992;5.896;2023-02-11T16:05:32;11.30;99.90
56240;DHT22;42154;51.992;5.896;2023-02-11T16:07:59;11.20;99.90
56240;DHT22;42154;51.992;5.896;2023-02-11T16:15:36;10.90;99.90
56240;DHT22;42154;51.992;5.896;2023-02-11T16:18:25;10.90;99.90
56240;DHT22;42154;51.992;5.896;2023-02-11T16:20:52;10.80;99.90
56240;DHT22;42154;51.992;5.896;2023-02-11T16:23:32;10.80;99.90
56240;DHT22;42154;51.992;5.896;2023-02-11T16:26:29;10.80;99.90
56240;DHT22;42154;51.992;5.896;2023-02-11T16:29:04;10.70;99.90
56240;DHT22;42154;51.992;5.896;2023-02-11T16:31:36;10.50;99.90
56240;DHT22;42154;51.992;5.896;2023-02-11T16:34:04;10.50;99.90
56240;DHT22;42154;51.992;5.896;2023-02-11T16:36:30;10.50;99.90
56240;DHT22;42154;51.992;5.896;2023-02-11T16:38:56;10.50;99.90
56240;DHT22;42154;51.992;5.896;2023-02-11T16:41:21;10.40;99.90
56240;DHT22;42154;51.992;5.896;2023-02-11T16:43:47;10.40;99.90
56240;DHT22;42154;51.992;5.896;2023-02-11T16:46:14;10.30;99.90
56240;DHT22;42154;51.992;5.896;2023-02-11T16:48:40;10.30;99.90
56240;DHT22;42154;51.992;5.896;2023-02-11T16:51:06;10.20;99.90
56240;DHT22;42154;51.992;5.896;2023-02-11T16:53:35;10.20;99.90
56240;DHT22;42154;51.992;5.896;2023-02-11T16:56:00;10.10;99.90
56240;DHT22;42154;51.992;5.896;2023-02-11T16:58:26;10.10;99.90
56240;DHT22;42154;51.992;5.896;2023-02-11T17:00:52;10.10;99.90
56240;DHT22;42154;51.992;5.896;2023-02-11T17:03:22;10.00;99.90
56240;DHT22;42154;51.992;5.896;2023-02-11T17:05:49;10.00;99.90
56240;DHT22;42154;51.992;5.896;2023-02-11T17:08:15;9.90;99.90
56240;DHT22;42154;51.992;5.896;2023-02-11T17:10:41;9.90;99.90
56240;DHT22;42154;51.992;5.896;2023-02-11T17:13:07;9.80;99.90
56240;DHT22;42154;51.992;5.896;2023-02-11T17:15:33;9.80;99.90
56240;DHT22;42154;51.992;5.896;2023-02-11T17:17:58;9.80;99.90
56240;DHT22;42154;51.992;5.896;2023-02-11T17:20:24;9.80;99.90
56240;DHT22;42154;51.992;5.896;2023-02-11T17:22:50;9.70;99.90
56240;DHT22;42154;51.992;5.896;2023-02-11T17:25:16;9.70;99.90
56240;DHT22;42154;51.992;5.896;2023-02-11T17:27:43;9.70;99.90
56240;DHT22;42154;51.992;5.896;2023-02-11T17:30:09;9.60;99.90
56240;DHT22;42154;51.992;5.896;2023-02-11T17:32:36;9.60;99.90
56240;DHT22;42154;51.992;5.896;2023-02-11T17:35:02;9.50;99.90
56240;DHT22;42154;51.992;5.896;2023-02-11T17:37:30;9.50;99.90
56240;DHT22;42154;51.992;5.896;2023-02-11T17:39:56;9.50;99.90
56240;DHT22;42154;51.992;5.896;2023-02-11T17:42:22;9.40;99.90
56240;DHT22;42154;51.992;5.896;2023-02-11T17:44:47;9.40;99.90
56240;DHT22;42154;51.992;5.896;2023-02-11T17:47:13;9.30;99.90
56240;DHT22;42154;51.992;5.896;2023-02-11T17:49:39;9.30;99.90
56240;DHT22;42154;51.992;5.896;2023-02-11T17:52:05;9.30;99.90
56240;DHT22;42154;51.992;5.896;2023-02-11T17:54:31;9.30;99.90
56240;DHT22;42154;51.992;5.896;2023-02-11T17:56:57;9.30;99.90
56240;DHT22;42154;51.992;5.896;2023-02-11T17:59:22;9.30;99.90
56240;DHT22;42154;51.992;5.896;2023-02-11T18:01:49;9.30;99.90
56240;DHT22;42154;51.992;5.896;2023-02-11T18:04:17;9.30;99.90
56240;DHT22;42154;51.992;5.896;2023-02-11T18:06:43;9.30;99.90
56240;DHT22;42154;51.992;5.896;2023-02-11T18:09:10;9.30;99.90
56240;DHT22;42154;51.992;5.896;2023-02-11T18:11:37;9.30;99.90
56240;DHT22;42154;51.992;5.896;2023-02-11T18:14:04;9.30;99.90
56240;DHT22;42154;51.992;5.896;2023-02-11T18:16:32;9.30;99.90
56240;DHT22;42154;51.992;5.896;2023-02-11T18:19:01;9.30;99.90
56240;DHT22;42154;51.992;5.896;2023-02-11T18:21:27;9.30;99.90
56240;DHT22;42154;51.992;5.896;2023-02-11T18:23:53;9.30;99.90
56240;DHT22;42154;51.992;5.896;2023-02-11T18:26:20;9.30;99.90
56240;DHT22;42154;51.992;5.896;2023-02-11T18:28:46;9.30;99.90
56240;DHT22;42154;51.992;5.896;2023-02-11T18:31:12;9.30;99.90
56240;DHT22;42154;51.992;5.896;2023-02-11T18:33:40;9.30;99.90
56240;DHT22;42154;51.992;5.896;2023-02-11T18:36:11;9.30;99.90
56240;DHT22;42154;51.992;5.896;2023-02-11T18:38:39;9.40;99.90